sensor_id;sensor_type;location;lat;lon;timestamp;P1;durP1;ratioP1;P2;durP2;ratioP2
76701;SDS011;70097;44.536;0.146;2023-12-04T00:02:47;7.17;;;1.80;;
76701;SDS011;70097;44.536;0.146;2023-12-04T00:08:20;4.53;;;2.50;;
76701;SDS011;70097;44.536;0.146;2023-12-04T00:13:53;4.43;;;1.77;;
76701;SDS011;70097;44.536;0.146;2023-12-04T00:19:26;4.83;;;2.00;;
76701;SDS011;70097;44.536;0.146;2023-12-04T00:24:59;4.57;;;2.53;;
76701;SDS011;70097;44.536;0.146;2023-12-04T00:30:31;6.33;;;2.30;;
76701;SDS011;70097;44.536;0.146;2023-12-04T00:36:05;8.03;;;2.90;;
76701;SDS011;70097;44.536;0.146;2023-12-04T00:41:38;4.30;;;1.73;;
76701;SDS011;70097;44.536;0.146;2023-12-04T00:47:10;4.57;;;2.60;;
76701;SDS011;70097;44.536;0.146;2023-12-04T00:52:44;3.77;;;1.90;;
76701;SDS011;70097;44.536;0.146;2023-12-04T00:58:18;3.80;;;2.27;;
76701;SDS011;70097;44.536;0.146;2023-12-04T01:09:23;5.17;;;1.97;;
76701;SDS011;70097;44.536;0.146;2023-12-04T01:14:56;4.30;;;2.33;;
76701;SDS011;70097;44.536;0.146;2023-12-04T01:20:28;4.07;;;1.87;;
76701;SDS011;70097;44.536;0.146;2023-12-04T01:37:05;3.30;;;1.97;;
76701;SDS011;70097;44.536;0.146;2023-12-04T01:42:38;5.00;;;1.90;;
76701;SDS011;70097;44.536;0.146;2023-12-04T01:48:10;4.93;;;1.97;;
76701;SDS011;70097;44.536;0.146;2023-12-04T01:53:44;7.07;;;2.30;;
76701;SDS011;70097;44.536;0.146;2023-12-04T01:59:17;3.93;;;2.00;;
76701;SDS011;70097;44.536;0.146;2023-12-04T02:04:49;4.30;;;2.07;;
76701;SDS011;70097;44.536;0.146;2023-12-04T02:10:22;5.63;;;1.90;;
76701;SDS011;70097;44.536;0.146;2023-12-04T02:15:56;9.57;;;4.57;;
76701;SDS011;70097;44.536;0.146;2023-12-04T02:21:28;4.03;;;1.77;;
76701;SDS011;70097;44.536;0.146;2023-12-04T02:27:04;7.47;;;2.47;;
76701;SDS011;70097;44.536;0.146;2023-12-04T02:32:36;4.33;;;2.10;;
76701;SDS011;70097;44.536;0.146;2023-12-04T02:38:08;12.20;;;2.80;;
76701;SDS011;70097;44.536;0.146;2023-12-04T02:43:41;3.40;;;2.10;;
76701;SDS011;70097;44.536;0.146;2023-12-04T02:49:13;8.30;;;2.03;;
76701;SDS011;70097;44.536;0.146;2023-12-04T02:54:46;4.47;;;1.60;;
76701;SDS011;70097;44.536;0.146;2023-12-04T03:00:19;2.53;;;1.73;;
76701;SDS011;70097;44.536;0.146;2023-12-04T03:05:52;3.17;;;1.73;;
76701;SDS011;70097;44.536;0.146;2023-12-04T03:11:24;3.60;;;1.30;;
76701;SDS011;70097;44.536;0.146;2023-12-04T03:16:56;5.60;;;1.83;;
76701;SDS011;70097;44.536;0.146;2023-12-04T03:22:29;4.03;;;1.50;;
76701;SDS011;70097;44.536;0.146;2023-12-04T03:28:03;6.97;;;2.77;;
76701;SDS011;70097;44.536;0.146;2023-12-04T03:33:36;5.20;;;1.90;;
76701;SDS011;70097;44.536;0.146;2023-12-04T03:39:09;6.30;;;2.50;;
76701;SDS011;70097;44.536;0.146;2023-12-04T03:44:42;3.67;;;1.90;;
76701;SDS011;70097;44.536;0.146;2023-12-04T03:50:14;4.73;;;1.87;;
76701;SDS011;70097;44.536;0.146;2023-12-04T03:55:47;4.10;;;2.00;;
76701;SDS011;70097;44.536;0.146;2023-12-04T04:01:20;4.13;;;2.00;;
76701;SDS011;70097;44.536;0.146;2023-12-04T04:06:52;2.57;;;1.40;;
76701;SDS011;70097;44.536;0.146;2023-12-04T04:12:26;4.23;;;2.20;;
76701;SDS011;70097;44.536;0.146;2023-12-04T04:17:59;9.23;;;2.83;;
76701;SDS011;70097;44.536;0.146;2023-12-04T04:23:33;4.43;;;1.60;;
76701;SDS011;70097;44.536;0.146;2023-12-04T04:29:06;4.87;;;1.90;;
76701;SDS011;70097;44.536;0.146;2023-12-04T04:34:38;8.33;;;2.60;;
76701;SDS011;70097;44.536;0.146;2023-12-04T04:40:11;5.67;;;2.57;;
76701;SDS011;70097;44.536;0.146;2023-12-04T04:45:44;9.67;;;2.90;;
76701;SDS011;70097;44.536;0.146;2023-12-04T04:51:16;5.20;;;2.33;;
76701;SDS011;70097;44.536;0.146;2023-12-04T04:56:49;9.73;;;2.80;;
76701;SDS011;70097;44.536;0.146;2023-12-04T05:02:22;4.03;;;2.03;;
76701;SDS011;70097;44.536;0.146;2023-12-04T05:07:55;4.80;;;2.63;;
76701;SDS011;70097;44.536;0.146;2023-12-04T05:13:29;3.97;;;2.33;;
76701;SDS011;70097;44.536;0.146;2023-12-04T05:19:01;10.30;;;3.17;;
76701;SDS011;70097;44.536;0.146;2023-12-04T05:24:33;8.03;;;2.90;;
76701;SDS011;70097;44.536;0.146;2023-12-04T05:30:06;5.90;;;3.20;;
76701;SDS011;70097;44.536;0.146;2023-12-04T05:35:39;5.87;;;2.70;;
76701;SDS011;70097;44.536;0.146;2023-12-04T05:41:12;4.60;;;2.80;;
76701;SDS011;70097;44.536;0.146;2023-12-04T05:46:45;8.93;;;3.73;;
76701;SDS011;70097;44.536;0.146;2023-12-04T05:52:17;8.00;;;3.60;;
76701;SDS011;70097;44.536;0.146;2023-12-04T05:57:49;10.40;;;2.83;;
76701;SDS011;70097;44.536;0.146;2023-12-04T06:03:22;9.30;;;4.23;;
76701;SDS011;70097;44.536;0.146;2023-12-04T06:08:54;10.30;;;4.03;;
76701;SDS011;70097;44.536;0.146;2023-12-04T06:14:28;8.87;;;3.90;;
76701;SDS011;70097;44.536;0.146;2023-12-04T06:20:01;6.47;;;3.17;;
76701;SDS011;70097;44.536;0.146;2023-12-04T06:25:33;8.40;;;4.17;;
76701;SDS011;70097;44.536;0.146;2023-12-04T06:31:05;7.53;;;4.13;;
76701;SDS011;70097;44.536;0.146;2023-12-04T06:36:38;7.27;;;3.50;;
76701;SDS011;70097;44.536;0.146;2023-12-04T06:42:11;5.83;;;3.33;;
76701;SDS011;70097;44.536;0.146;2023-12-04T06:47:43;6.93;;;2.80;;
76701;SDS011;70097;44.536;0.146;2023-12-04T06:53:16;10.13;;;4.73;;
76701;SDS011;70097;44.536;0.146;2023-12-04T06:58:49;5.93;;;3.10;;
76701;SDS011;70097;44.536;0.146;2023-12-04T07:04:22;10.93;;;3.20;;
76701;SDS011;70097;44.536;0.146;2023-12-04T07:09:56;6.30;;;3.23;;
76701;SDS011;70097;44.536;0.146;2023-12-04T07:15:29;12.87;;;5.03;;
76701;SDS011;70097;44.536;0.146;2023-12-04T07:21:01;10.90;;;4.47;;
76701;SDS011;70097;44.536;0.146;2023-12-04T07:26:35;7.07;;;3.47;;
76701;SDS011;70097;44.536;0.146;2023-12-04T07:32:07;7.37;;;3.60;;
76701;SDS011;70097;44.536;0.146;2023-12-04T07:37:39;6.97;;;3.47;;
76701;SDS011;70097;44.536;0.146;2023-12-04T07:43:13;7.33;;;4.13;;
76701;SDS011;70097;44.536;0.146;2023-12-04T07:48:45;10.00;;;3.57;;
76701;SDS011;70097;44.536;0.146;2023-12-04T07:54:17;8.73;;;3.57;;
76701;SDS011;70097;44.536;0.146;2023-12-04T07:59:51;7.20;;;3.83;;
76701;SDS011;70097;44.536;0.146;2023-12-04T08:05:25;6.43;;;3.97;;
76701;SDS011;70097;44.536;0.146;2023-12-04T08:10:58;8.03;;;4.43;;
76701;SDS011;70097;44.536;0.146;2023-12-04T08:16:31;9.47;;;4.83;;
76701;SDS011;70097;44.536;0.146;2023-12-04T08:22:04;9.70;;;4.03;;
76701;SDS011;70097;44.536;0.146;2023-12-04T08:27:38;9.17;;;4.23;;
76701;SDS011;70097;44.536;0.146;2023-12-04T08:33:11;8.90;;;4.07;;
76701;SDS011;70097;44.536;0.146;2023-12-04T08:38:43;9.90;;;3.37;;
76701;SDS011;70097;44.536;0.146;2023-12-04T08:44:15;6.97;;;3.07;;
76701;SDS011;70097;44.536;0.146;2023-12-04T08:49:48;9.43;;;4.23;;
76701;SDS011;70097;44.536;0.146;2023-12-04T08:55:22;13.73;;;4.40;;
76701;SDS011;70097;44.536;0.146;2023-12-04T09:00:55;7.83;;;3.83;;
76701;SDS011;70097;44.536;0.146;2023-12-04T09:06:28;11.30;;;4.27;;
76701;SDS011;70097;44.536;0.146;2023-12-04T09:12:01;10.77;;;3.93;;
76701;SDS011;70097;44.536;0.146;2023-12-04T09:17:33;7.83;;;3.53;;
76701;SDS011;70097;44.536;0.146;2023-12-04T09:23:05;8.37;;;3.20;;
76701;SDS011;70097;44.536;0.146;2023-12-04T09:28:37;6.73;;;3.00;;
76701;SDS011;70097;44.536;0.146;2023-12-04T09:34:10;6.03;;;2.77;;
76701;SDS011;70097;44.536;0.146;2023-12-04T09:39:43;11.20;;;4.70;;
76701;SDS011;70097;44.536;0.146;2023-12-04T09:45:17;11.50;;;7.07;;
76701;SDS011;70097;44.536;0.146;2023-12-04T09:50:50;12.17;;;5.50;;
76701;SDS011;70097;44.536;0.146;2023-12-04T09:56:23;9.73;;;4.10;;
76701;SDS011;70097;44.536;0.146;2023-12-04T10:01:56;9.77;;;3.20;;
76701;SDS011;70097;44.536;0.146;2023-12-04T10:07:29;4.30;;;2.37;;
76701;SDS011;70097;44.536;0.146;2023-12-04T10:13:02;2.37;;;1.30;;
76701;SDS011;70097;44.536;0.146;2023-12-04T10:18:35;2.37;;;1.20;;
76701;SDS011;70097;44.536;0.146;2023-12-04T10:24:08;2.63;;;1.53;;
76701;SDS011;70097;44.536;0.146;2023-12-04T10:29:43;7.50;;;1.30;;
76701;SDS011;70097;44.536;0.146;2023-12-04T10:35:15;1.60;;;0.87;;
76701;SDS011;70097;44.536;0.146;2023-12-04T10:40:48;2.70;;;1.07;;
76701;SDS011;70097;44.536;0.146;2023-12-04T10:46:21;1.27;;;0.70;;
76701;SDS011;70097;44.536;0.146;2023-12-04T10:51:55;1.43;;;0.70;;
76701;SDS011;70097;44.536;0.146;2023-12-04T10:57:27;4.03;;;0.77;;
76701;SDS011;70097;44.536;0.146;2023-12-04T11:03:02;0.83;;;0.47;;
76701;SDS011;70097;44.536;0.146;2023-12-04T11:08:33;2.43;;;0.83;;
76701;SDS011;70097;44.536;0.146;2023-12-04T11:14:05;1.50;;;0.60;;
76701;SDS011;70097;44.536;0.146;2023-12-04T11:19:39;1.87;;;0.43;;
76701;SDS011;70097;44.536;0.146;2023-12-04T11:25:11;2.70;;;0.60;;
76701;SDS011;70097;44.536;0.146;2023-12-04T11:30:43;0.10;;;0.10;;
76701;SDS011;70097;44.536;0.146;2023-12-04T11:36:17;0.33;;;0.33;;
76701;SDS011;70097;44.536;0.146;2023-12-04T11:41:50;0.20;;;0.20;;
76701;SDS011;70097;44.536;0.146;2023-12-04T11:47:24;0.23;;;0.23;;
76701;SDS011;70097;44.536;0.146;2023-12-04T11:52:57;0.53;;;0.40;;
76701;SDS011;70097;44.536;0.146;2023-12-04T11:58:31;0.10;;;0.10;;
76701;SDS011;70097;44.536;0.146;2023-12-04T12:04:05;0.67;;;0.67;;
76701;SDS011;70097;44.536;0.146;2023-12-04T12:09:38;0.20;;;0.20;;
76701;SDS011;70097;44.536;0.146;2023-12-04T12:15:11;0.20;;;0.20;;
76701;SDS011;70097;44.536;0.146;2023-12-04T12:20:44;0.40;;;0.40;;
76701;SDS011;70097;44.536;0.146;2023-12-04T12:26:17;0.20;;;0.20;;
76701;SDS011;70097;44.536;0.146;2023-12-04T12:31:51;0.10;;;0.10;;
76701;SDS011;70097;44.536;0.146;2023-12-04T12:37:25;0.67;;;0.47;;
76701;SDS011;70097;44.536;0.146;2023-12-04T12:43:03;1.30;;;0.60;;
76701;SDS011;70097;44.536;0.146;2023-12-04T12:48:29;1.73;;;0.90;;
76701;SDS011;70097;44.536;0.146;2023-12-04T12:54:03;5.30;;;1.67;;
76701;SDS011;70097;44.536;0.146;2023-12-04T12:59:35;2.07;;;1.00;;
76701;SDS011;70097;44.536;0.146;2023-12-04T13:05:08;6.53;;;0.90;;
76701;SDS011;70097;44.536;0.146;2023-12-04T13:10:41;4.73;;;1.00;;
76701;SDS011;70097;44.536;0.146;2023-12-04T13:16:14;3.00;;;0.90;;
76701;SDS011;70097;44.536;0.146;2023-12-04T13:21:46;7.30;;;2.30;;
76701;SDS011;70097;44.536;0.146;2023-12-04T13:27:19;5.50;;;1.23;;
76701;SDS011;70097;44.536;0.146;2023-12-04T13:32:51;12.60;;;2.33;;
76701;SDS011;70097;44.536;0.146;2023-12-04T13:38:23;5.23;;;1.77;;
76701;SDS011;70097;44.536;0.146;2023-12-04T13:43:56;11.23;;;2.00;;
76701;SDS011;70097;44.536;0.146;2023-12-04T13:49:29;0.60;;;0.60;;
76701;SDS011;70097;44.536;0.146;2023-12-04T13:55:02;0.27;;;0.27;;
76701;SDS011;70097;44.536;0.146;2023-12-04T14:00:35;0.57;;;0.57;;
76701;SDS011;70097;44.536;0.146;2023-12-04T14:06:08;6.00;;;0.93;;
76701;SDS011;70097;44.536;0.146;2023-12-04T14:11:42;0.43;;;0.43;;
76701;SDS011;70097;44.536;0.146;2023-12-04T14:17:15;0.20;;;0.20;;
76701;SDS011;70097;44.536;0.146;2023-12-04T14:22:47;0.67;;;0.50;;
76701;SDS011;70097;44.536;0.146;2023-12-04T14:33:53;10.73;;;1.13;;
76701;SDS011;70097;44.536;0.146;2023-12-04T14:39:27;0.63;;;0.63;;
76701;SDS011;70097;44.536;0.146;2023-12-04T14:45:00;0.30;;;0.30;;
76701;SDS011;70097;44.536;0.146;2023-12-04T14:50:33;0.20;;;0.20;;
76701;SDS011;70097;44.536;0.146;2023-12-04T14:56:04;0.17;;;0.17;;
76701;SDS011;70097;44.536;0.146;2023-12-04T15:01:37;1.03;;;0.67;;
76701;SDS011;70097;44.536;0.146;2023-12-04T15:07:10;0.97;;;0.97;;
76701;SDS011;70097;44.536;0.146;2023-12-04T15:12:44;0.93;;;0.93;;
76701;SDS011;70097;44.536;0.146;2023-12-04T15:18:16;1.03;;;1.03;;
76701;SDS011;70097;44.536;0.146;2023-12-04T15:23:49;0.10;;;0.10;;
76701;SDS011;70097;44.536;0.146;2023-12-04T15:29:21;0.73;;;0.70;;
76701;SDS011;70097;44.536;0.146;2023-12-04T15:34:55;8.83;;;0.73;;
76701;SDS011;70097;44.536;0.146;2023-12-04T15:40:28;0.20;;;0.20;;
76701;SDS011;70097;44.536;0.146;2023-12-04T15:46:01;9.23;;;2.73;;
76701;SDS011;70097;44.536;0.146;2023-12-04T15:51:34;0.20;;;0.20;;
76701;SDS011;70097;44.536;0.146;2023-12-04T15:57:07;0.50;;;0.50;;
76701;SDS011;70097;44.536;0.146;2023-12-04T16:02:39;2.37;;;0.57;;
76701;SDS011;70097;44.536;0.146;2023-12-04T16:08:13;2.07;;;0.87;;
76701;SDS011;70097;44.536;0.146;2023-12-04T16:13:46;0.53;;;0.53;;
76701;SDS011;70097;44.536;0.146;2023-12-04T16:19:19;0.33;;;0.33;;
76701;SDS011;70097;44.536;0.146;2023-12-04T16:24:52;14.17;;;1.07;;
76701;SDS011;70097;44.536;0.146;2023-12-04T16:30:24;1.07;;;0.97;;
76701;SDS011;70097;44.536;0.146;2023-12-04T16:35:58;0.33;;;0.33;;
76701;SDS011;70097;44.536;0.146;2023-12-04T16:41:32;0.20;;;0.20;;
76701;SDS011;70097;44.536;0.146;2023-12-04T16:47:05;0.20;;;0.20;;
76701;SDS011;70097;44.536;0.146;2023-12-04T16:52:38;2.17;;;0.63;;
76701;SDS011;70097;44.536;0.146;2023-12-04T16:58:10;0.10;;;0.10;;
76701;SDS011;70097;44.536;0.146;2023-12-04T17:03:43;1.83;;;0.40;;
76701;SDS011;70097;44.536;0.146;2023-12-04T17:09:17;0.23;;;0.23;;
76701;SDS011;70097;44.536;0.146;2023-12-04T17:14:50;0.10;;;0.10;;
76701;SDS011;70097;44.536;0.146;2023-12-04T17:20:23;0.20;;;0.20;;
76701;SDS011;70097;44.536;0.146;2023-12-04T17:25:57;0.50;;;0.50;;
76701;SDS011;70097;44.536;0.146;2023-12-04T17:31:30;0.30;;;0.30;;
76701;SDS011;70097;44.536;0.146;2023-12-04T17:37:03;2.43;;;1.80;;
76701;SDS011;70097;44.536;0.146;2023-12-04T17:42:36;0.10;;;0.10;;
76701;SDS011;70097;44.536;0.146;2023-12-04T17:48:09;0.30;;;0.30;;
76701;SDS011;70097;44.536;0.146;2023-12-04T17:53:42;0.83;;;0.83;;
76701;SDS011;70097;44.536;0.146;2023-12-04T17:59:15;0.20;;;0.20;;
76701;SDS011;70097;44.536;0.146;2023-12-04T18:04:48;0.40;;;0.40;;
76701;SDS011;70097;44.536;0.146;2023-12-04T18:10:21;0.97;;;0.97;;
76701;SDS011;70097;44.536;0.146;2023-12-04T18:15:53;3.00;;;2.00;;
76701;SDS011;70097;44.536;0.146;2023-12-04T18:21:26;3.53;;;2.33;;
76701;SDS011;70097;44.536;0.146;2023-12-04T18:26:59;2.27;;;1.20;;
76701;SDS011;70097;44.536;0.146;2023-12-04T18:32:31;0.60;;;0.50;;
76701;SDS011;70097;44.536;0.146;2023-12-04T18:38:05;1.40;;;1.30;;
76701;SDS011;70097;44.536;0.146;2023-12-04T18:43:38;0.20;;;0.20;;
76701;SDS011;70097;44.536;0.146;2023-12-04T18:49:11;3.60;;;1.90;;
76701;SDS011;70097;44.536;0.146;2023-12-04T18:54:45;0.30;;;0.30;;
76701;SDS011;70097;44.536;0.146;2023-12-04T19:00:18;0.20;;;0.20;;
76701;SDS011;70097;44.536;0.146;2023-12-04T19:05:52;0.10;;;0.10;;
76701;SDS011;70097;44.536;0.146;2023-12-04T19:11:25;0.20;;;0.20;;
76701;SDS011;70097;44.536;0.146;2023-12-04T19:16:58;0.20;;;0.20;;
76701;SDS011;70097;44.536;0.146;2023-12-04T19:22:31;0.40;;;0.40;;
76701;SDS011;70097;44.536;0.146;2023-12-04T19:28:04;0.83;;;0.63;;
76701;SDS011;70097;44.536;0.146;2023-12-04T19:33:38;0.47;;;0.47;;
76701;SDS011;70097;44.536;0.146;2023-12-04T19:39:11;0.40;;;0.40;;
76701;SDS011;70097;44.536;0.146;2023-12-04T19:44:45;11.50;;;1.37;;
76701;SDS011;70097;44.536;0.146;2023-12-04T19:50:17;0.10;;;0.10;;
76701;SDS011;70097;44.536;0.146;2023-12-04T19:55:50;2.30;;;2.20;;
76701;SDS011;70097;44.536;0.146;2023-12-04T20:01:24;9.47;;;1.00;;
76701;SDS011;70097;44.536;0.146;2023-12-04T20:06:56;0.30;;;0.30;;
76701;SDS011;70097;44.536;0.146;2023-12-04T20:12:29;0.13;;;0.13;;
76701;SDS011;70097;44.536;0.146;2023-12-04T20:18:02;0.20;;;0.20;;
76701;SDS011;70097;44.536;0.146;2023-12-04T20:23:36;2.00;;;1.83;;
76701;SDS011;70097;44.536;0.146;2023-12-04T20:29:09;0.27;;;0.27;;
76701;SDS011;70097;44.536;0.146;2023-12-04T20:34:41;0.63;;;0.63;;
76701;SDS011;70097;44.536;0.146;2023-12-04T20:40:14;0.10;;;0.10;;
76701;SDS011;70097;44.536;0.146;2023-12-04T20:45:48;0.20;;;0.20;;
76701;SDS011;70097;44.536;0.146;2023-12-04T20:51:20;0.30;;;0.30;;
76701;SDS011;70097;44.536;0.146;2023-12-04T20:56:54;0.40;;;0.40;;
76701;SDS011;70097;44.536;0.146;2023-12-04T21:02:27;1.40;;;1.23;;
76701;SDS011;70097;44.536;0.146;2023-12-04T21:08:00;0.10;;;0.10;;
76701;SDS011;70097;44.536;0.146;2023-12-04T21:13:33;14.07;;;0.80;;
76701;SDS011;70097;44.536;0.146;2023-12-04T21:19:07;0.47;;;0.47;;
76701;SDS011;70097;44.536;0.146;2023-12-04T21:24:39;0.30;;;0.30;;
76701;SDS011;70097;44.536;0.146;2023-12-04T21:30:11;7.33;;;2.60;;
76701;SDS011;70097;44.536;0.146;2023-12-04T21:35:45;22.47;;;3.10;;
76701;SDS011;70097;44.536;0.146;2023-12-04T21:41:17;26.67;;;3.27;;
76701;SDS011;70097;44.536;0.146;2023-12-04T21:46:51;22.80;;;3.60;;
76701;SDS011;70097;44.536;0.146;2023-12-04T21:52:24;22.30;;;3.60;;
76701;SDS011;70097;44.536;0.146;2023-12-04T21:57:57;19.30;;;3.33;;
76701;SDS011;70097;44.536;0.146;2023-12-04T22:03:29;16.87;;;2.90;;
76701;SDS011;70097;44.536;0.146;2023-12-04T22:09:03;13.57;;;3.00;;
76701;SDS011;70097;44.536;0.146;2023-12-04T22:14:36;19.33;;;3.10;;
76701;SDS011;70097;44.536;0.146;2023-12-04T22:20:09;18.53;;;3.77;;
76701;SDS011;70097;44.536;0.146;2023-12-04T22:25:41;16.60;;;3.43;;
76701;SDS011;70097;44.536;0.146;2023-12-04T22:31:14;20.43;;;3.57;;
76701;SDS011;70097;44.536;0.146;2023-12-04T22:36:47;18.03;;;4.20;;
76701;SDS011;70097;44.536;0.146;2023-12-04T22:42:21;20.73;;;4.50;;
76701;SDS011;70097;44.536;0.146;2023-12-04T22:47:53;27.93;;;7.00;;
76701;SDS011;70097;44.536;0.146;2023-12-04T22:53:26;32.67;;;5.13;;
76701;SDS011;70097;44.536;0.146;2023-12-04T22:58:58;22.57;;;5.23;;
76701;SDS011;70097;44.536;0.146;2023-12-04T23:04:31;26.67;;;3.63;;
76701;SDS011;70097;44.536;0.146;2023-12-04T23:10:05;19.53;;;5.43;;
76701;SDS011;70097;44.536;0.146;2023-12-04T23:15:37;23.07;;;3.30;;
76701;SDS011;70097;44.536;0.146;2023-12-04T23:21:09;17.10;;;3.13;;
76701;SDS011;70097;44.536;0.146;2023-12-04T23:26:42;18.80;;;3.80;;
76701;SDS011;70097;44.536;0.146;2023-12-04T23:32:14;34.63;;;3.37;;
76701;SDS011;70097;44.536;0.146;2023-12-04T23:37:48;20.43;;;3.47;;
76701;SDS011;70097;44.536;0.146;2023-12-04T23:43:20;17.60;;;2.50;;
76701;SDS011;70097;44.536;0.146;2023-12-04T23:48:52;22.40;;;3.60;;
76701;SDS011;70097;44.536;0.146;2023-12-04T23:54:26;27.60;;;3.93;;
76701;SDS011;70097;44.536;0.146;2023-12-04T23:59:59;15.17;;;4.03;;
